Time;durP1;ratioP1;P1;durP2;ratioP2;P2;SDS_P1;SDS_P2;PMS_P1;PMS_P2;Temp;Humidity;BMP_temperature;BMP_pressure;BME280_temperature;BME280_humidity;BME280_pressure;Samples;Min_cycle;Max_cycle;Signal;HPM_P1;HPM_P2
2023/10/18 00:02:45;;;;;;;;;;;;;;;4.12;56.18;95258.50;4970050;28;19926;-77
2023/10/18 00:05:10;;;;;;;;;;;;;;;4.20;54.60;95249.88;4987139;28;19932;-79
2023/10/18 00:07:35;;;;;;;;;;;;;;;4.00;53.94;95249.97;4993218;28;19959;-76
2023/10/18 00:10:01;;;;;;;;;;;;;;;3.90;54.04;95246.53;4989838;28;19962;-79
2023/10/18 00:12:26;;;;;;;;;;;;;;;3.90;54.97;95250.00;4986645;28;19969;-78
2023/10/18 00:14:52;;;;;;;;;;;;;;;3.89;53.88;95245.72;4981251;28;20047;-77
2023/10/18 00:17:17;;;;;;;;;;;;;;;4.11;52.58;95243.66;4988833;28;19941;-77
2023/10/18 00:19:43;;;;;;;;;;;;;;;3.98;55.88;95232.66;4954814;28;19962;-77
2023/10/18 00:22:12;;;;;;;;;;;;;;;3.60;53.25;95235.31;4984571;28;20482;-77
2023/10/18 00:24:37;;;;;;;;;;;;;;;3.85;54.52;95233.81;4961220;28;20440;-77
2023/10/18 00:27:03;;;;;;;;;;;;;;;3.76;55.01;95232.88;4963824;28;19958;-77
2023/10/18 00:29:29;;;;;;;;;;;;;;;3.55;56.08;95225.19;4965648;28;19939;-77
2023/10/18 00:31:54;;;;;;;;;;;;;;;3.48;56.15;95239.91;4994568;28;19958;-77
2023/10/18 00:34:19;;;;;;;;;;;;;;;3.54;57.08;95237.53;4976663;28;20047;-78
2023/10/18 00:36:45;;;;;;;;;;;;;;;3.43;53.22;95222.69;4985354;28;19970;-77
2023/10/18 00:39:20;;;;;;;;;;;;;;;3.91;52.41;95222.69;4986492;28;19940;-77
2023/10/18 00:41:45;;;;;;;;;;;;;;;3.86;53.19;95214.41;4986736;28;19968;-78
2023/10/18 00:44:11;;;;;;;;;;;;;;;3.63;55.59;95217.41;4987605;28;19975;-78
2023/10/18 00:46:39;;;;;;;;;;;;;;;3.73;55.02;95213.91;4987122;28;20006;-77
2023/10/18 00:49:13;;;;;;;;;;;;;;;3.51;55.12;95200.13;4980105;28;20442;-79
2023/10/18 00:51:39;;;;;;;;;;;;;;;3.37;55.96;95199.56;4972509;28;20332;-78
2023/10/18 00:54:11;;;;;;;;;;;;;;;3.34;55.68;95202.50;4968534;28;19971;-79
2023/10/18 00:56:38;;;;;;;;;;;;;;;3.10;54.88;95211.69;4967025;28;20353;-77
2023/10/18 00:59:07;;;;;;;;;;;;;;;3.26;56.09;95218.16;4974133;28;19972;-78
2023/10/18 01:01:35;;;;;;;;;;;;;;;3.27;56.69;95211.94;4944062;28;19943;-80
2023/10/18 01:04:05;;;;;;;;;;;;;;;3.11;56.19;95212.53;4959745;28;20086;-79
2023/10/18 01:06:31;;;;;;;;;;;;;;;3.07;55.60;95201.47;4965046;28;19968;-78
2023/10/18 01:08:58;;;;;;;;;;;;;;;3.23;53.40;95202.69;4972200;28;19967;-77
2023/10/18 01:11:27;;;;;;;;;;;;;;;3.33;51.97;95190.31;4978832;28;20485;-80
2023/10/18 01:13:55;;;;;;;;;;;;;;;3.46;52.64;95199.72;4954829;28;19933;-79
2023/10/18 01:16:23;;;;;;;;;;;;;;;3.40;51.24;95196.66;4963415;28;19957;-79
2023/10/18 01:18:49;;;;;;;;;;;;;;;3.39;54.24;95189.75;4975258;28;19963;-79
2023/10/18 01:21:22;;;;;;;;;;;;;;;3.19;55.68;95183.69;4965762;28;19944;-77
2023/10/18 01:23:54;;;;;;;;;;;;;;;2.78;57.22;95191.78;4967415;28;20277;-78
2023/10/18 01:26:23;;;;;;;;;;;;;;;2.67;54.65;95184.88;4955512;28;19966;-78
2023/10/18 01:28:48;;;;;;;;;;;;;;;2.83;58.16;95181.72;4965157;28;20405;-78
2023/10/18 01:31:13;;;;;;;;;;;;;;;3.16;54.21;95170.81;4965909;28;20048;-78
2023/10/18 01:33:40;;;;;;;;;;;;;;;3.21;54.25;95171.25;4970697;28;19994;-80
2023/10/18 01:36:06;;;;;;;;;;;;;;;2.99;57.68;95180.31;4949516;28;20702;-79
2023/10/18 01:38:31;;;;;;;;;;;;;;;3.14;57.65;95183.31;4960678;28;19932;-78
2023/10/18 01:41:00;;;;;;;;;;;;;;;3.07;58.38;95183.06;4966273;28;20352;-80
2023/10/18 01:43:28;;;;;;;;;;;;;;;2.68;55.89;95183.09;4970851;28;19999;-78
2023/10/18 01:45:53;;;;;;;;;;;;;;;2.71;53.16;95178.38;4966843;28;19944;-78
2023/10/18 01:48:18;;;;;;;;;;;;;;;3.21;56.12;95179.13;4967879;28;20608;-79
2023/10/18 01:50:50;;;;;;;;;;;;;;;3.08;57.34;95173.34;4969955;28;19958;-78
2023/10/18 01:53:15;;;;;;;;;;;;;;;3.10;56.30;95166.97;4963631;28;19934;-79
2023/10/18 01:55:43;;;;;;;;;;;;;;;2.90;56.21;95167.00;4968459;28;20504;-79
2023/10/18 01:58:10;;;;;;;;;;;;;;;2.82;57.86;95160.81;4968711;28;19944;-79
2023/10/18 02:00:37;;;;;;;;;;;;;;;3.12;52.43;95161.56;4967915;28;20036;-80
2023/10/18 02:03:05;;;;;;;;;;;;;;;3.00;55.66;95151.19;4967558;28;20430;-80
2023/10/18 02:05:31;;;;;;;;;;;;;;;3.16;55.26;95145.34;4971822;28;19962;-78
2023/10/18 02:07:56;;;;;;;;;;;;;;;3.27;55.65;95154.06;4970395;28;19956;-79
2023/10/18 02:10:23;;;;;;;;;;;;;;;3.11;55.70;95147.59;4970545;28;20592;-80
2023/10/18 02:12:48;;;;;;;;;;;;;;;2.96;56.50;95138.50;4963230;28;19960;-79
2023/10/18 02:15:14;;;;;;;;;;;;;;;2.55;57.46;95134.25;4946308;28;19957;-78
2023/10/18 02:17:40;;;;;;;;;;;;;;;2.68;58.66;95138.41;4969060;28;20005;-77
2023/10/18 02:20:14;;;;;;;;;;;;;;;2.53;56.92;95130.94;4972135;28;19964;-77
2023/10/18 02:22:42;;;;;;;;;;;;;;;2.85;53.93;95136.84;4963354;28;20001;-79
2023/10/18 02:25:08;;;;;;;;;;;;;;;3.18;57.01;95124.16;4963522;28;19932;-81
2023/10/18 02:27:36;;;;;;;;;;;;;;;2.96;57.54;95127.97;4963287;28;20489;-79
2023/10/18 02:30:02;;;;;;;;;;;;;;;2.90;55.17;95124.94;4964646;28;20605;-77
2023/10/18 02:32:34;;;;;;;;;;;;;;;3.00;56.92;95118.84;4964213;28;19970;-80
2023/10/18 02:34:59;;;;;;;;;;;;;;;2.62;54.67;95109.06;4946858;28;19962;-77
2023/10/18 02:37:25;;;;;;;;;;;;;;;2.34;55.85;95106.34;4964284;28;19971;-79
2023/10/18 02:39:51;;;;;;;;;;;;;;;2.71;57.63;95120.53;4966751;28;20017;-78
2023/10/18 02:42:18;;;;;;;;;;;;;;;2.81;59.96;95120.53;4965057;28;20610;-79
2023/10/18 02:44:44;;;;;;;;;;;;;;;2.78;52.68;95120.81;4947577;28;20569;-81
2023/10/18 02:47:26;;;;;;;;;;;;;;;2.78;56.34;95119.03;4965044;28;20014;-78
2023/10/18 02:49:51;;;;;;;;;;;;;;;2.71;53.69;95124.97;4966035;28;20017;-78
2023/10/18 02:52:17;;;;;;;;;;;;;;;2.59;54.49;95125.13;4949181;28;20461;-78
2023/10/18 02:54:42;;;;;;;;;;;;;;;3.04;56.81;95117.56;4964455;28;19990;-78
2023/10/18 02:57:07;;;;;;;;;;;;;;;3.26;52.82;95112.91;4971571;28;20004;-78
2023/10/18 02:59:33;;;;;;;;;;;;;;;3.26;55.03;95115.53;4965215;28;19956;-79
2023/10/18 03:02:01;;;;;;;;;;;;;;;3.32;56.60;95107.09;4969506;28;19934;-77
2023/10/18 03:04:28;;;;;;;;;;;;;;;3.43;58.51;95109.53;4970766;28;20049;-79
2023/10/18 03:06:53;;;;;;;;;;;;;;;3.43;52.95;95099.00;4969736;28;20024;-77
2023/10/18 03:09:38;;;;;;;;;;;;;;;3.41;54.35;95093.03;4955166;28;19942;-76
2023/10/18 03:12:03;;;;;;;;;;;;;;;3.34;54.95;95093.78;4972336;28;19999;-76
2023/10/18 03:14:41;;;;;;;;;;;;;;;3.28;52.49;95077.63;4964102;28;19942;-76
2023/10/18 03:19:42;;;;;;;;;;;;;;;3.00;56.61;95074.94;4970920;28;19954;-75
2023/10/18 03:22:07;;;;;;;;;;;;;;;2.67;57.43;95076.28;4973993;28;19954;-76
2023/10/18 03:24:32;;;;;;;;;;;;;;;2.82;52.63;95074.84;4966338;28;19961;-76
2023/10/18 03:27:07;;;;;;;;;;;;;;;3.20;53.75;95077.47;4966786;28;19983;-77
2023/10/18 03:29:32;;;;;;;;;;;;;;;3.24;54.64;95062.25;4968139;28;19938;-77
2023/10/18 03:31:59;;;;;;;;;;;;;;;3.38;51.30;95056.50;4967506;28;19963;-76
2023/10/18 03:34:25;;;;;;;;;;;;;;;3.31;54.10;95055.44;4969813;28;20394;-76
2023/10/18 03:36:53;;;;;;;;;;;;;;;3.40;54.73;95051.06;4968687;28;19973;-76
2023/10/18 03:39:24;;;;;;;;;;;;;;;3.58;53.87;95056.44;4956472;28;20455;-75
2023/10/18 03:41:50;;;;;;;;;;;;;;;3.10;54.49;95047.78;4969417;28;19934;-77
2023/10/18 03:44:21;;;;;;;;;;;;;;;3.04;57.10;95054.44;4948342;28;19987;-77
2023/10/18 03:46:49;;;;;;;;;;;;;;;3.29;54.45;95052.94;4968384;28;19935;-76
2023/10/18 03:51:57;;;;;;;;;;;;;;;3.27;54.32;95052.25;4971654;28;19968;-77
2023/10/18 03:54:27;;;;;;;;;;;;;;;3.57;52.29;95046.84;4972391;28;20032;-77
2023/10/18 03:56:53;;;;;;;;;;;;;;;3.61;54.11;95053.47;4950002;28;19962;-75
2023/10/18 03:59:21;;;;;;;;;;;;;;;3.65;54.01;95048.78;4969132;28;19955;-77
2023/10/18 04:04:48;;;;;;;;;;;;;;;3.67;56.17;95047.63;4961724;28;20336;-76
2023/10/18 04:07:13;;;;;;;;;;;;;;;3.49;58.36;95044.97;4982386;28;19961;-76
2023/10/18 04:09:40;;;;;;;;;;;;;;;3.27;56.47;95046.19;4975140;28;19936;-77
2023/10/18 04:12:07;;;;;;;;;;;;;;;3.49;55.96;95038.88;4951533;28;20417;-77
2023/10/18 04:14:33;;;;;;;;;;;;;;;3.36;57.86;95044.44;4965558;28;20042;-77
2023/10/18 04:16:59;;;;;;;;;;;;;;;3.08;58.10;95041.81;4952236;28;19933;-78
2023/10/18 04:19:24;;;;;;;;;;;;;;;3.41;52.61;95035.16;4982827;28;19945;-80
2023/10/18 04:21:53;;;;;;;;;;;;;;;3.55;55.20;95033.84;4985234;28;19940;-78
2023/10/18 04:24:20;;;;;;;;;;;;;;;3.45;54.46;95030.47;4982333;28;20018;-77
2023/10/18 04:26:47;;;;;;;;;;;;;;;3.35;56.55;95027.03;4969010;28;19931;-78
2023/10/18 04:29:18;;;;;;;;;;;;;;;3.42;56.46;95030.72;4984803;28;20472;-77
2023/10/18 04:31:44;;;;;;;;;;;;;;;3.20;55.09;95029.31;4972421;28;19979;-78
2023/10/18 04:34:11;;;;;;;;;;;;;;;3.30;58.20;95030.09;4990188;28;19937;-76
2023/10/18 04:36:36;;;;;;;;;;;;;;;3.09;55.96;95028.53;4980989;28;19962;-77
2023/10/18 04:39:06;;;;;;;;;;;;;;;3.16;54.08;95020.88;4985889;28;19953;-76
2023/10/18 04:41:32;;;;;;;;;;;;;;;3.12;57.79;95016.88;4987347;28;19999;-77
2023/10/18 04:44:40;;;;;;;;;;;;;;;3.08;55.92;95015.53;4985466;28;19957;-78
2023/10/18 04:46:47;;;;;;;;;;;;;;;2.87;55.37;95024.47;4980416;28;19947;-76
2023/10/18 04:52:20;;;;;;;;;;;;;;;3.49;54.16;95013.41;4975378;28;19983;-77
2023/10/18 04:54:59;;;;;;;;;;;;;;;3.51;55.11;95000.09;4985704;28;20005;-77
2023/10/18 04:57:24;;;;;;;;;;;;;;;3.27;53.09;95001.47;4977926;28;19931;-77
2023/10/18 04:59:52;;;;;;;;;;;;;;;3.13;54.44;94998.31;4994071;28;19956;-77
2023/10/18 05:02:18;;;;;;;;;;;;;;;3.30;50.29;94988.81;4981516;28;19986;-77
2023/10/18 05:04:43;;;;;;;;;;;;;;;3.49;53.50;94976.56;4983422;28;19958;-77
2023/10/18 05:07:15;;;;;;;;;;;;;;;3.62;51.25;94964.81;4987747;28;20352;-80
2023/10/18 05:14:43;;;;;;;;;;;;;;;3.37;54.51;94957.47;4986804;28;19941;-76
2023/10/18 05:17:17;;;;;;;;;;;;;;;3.58;54.56;94951.16;4965809;28;19946;-77
2023/10/18 05:19:43;;;;;;;;;;;;;;;3.48;53.72;94953.00;4983339;28;19964;-76
2023/10/18 05:22:09;;;;;;;;;;;;;;;3.53;56.50;94958.63;4982859;28;19928;-76
2023/10/18 05:24:37;;;;;;;;;;;;;;;3.63;56.14;94955.94;4955199;28;19977;-77
2023/10/18 05:27:24;;;;;;;;;;;;;;;3.33;53.14;94958.75;4965517;28;19967;-77
2023/10/18 05:29:52;;;;;;;;;;;;;;;3.17;57.98;94946.25;4976597;28;20558;-75
2023/10/18 05:32:38;;;;;;;;;;;;;;;3.52;56.79;94952.56;4948626;28;19972;-75
2023/10/18 05:35:19;;;;;;;;;;;;;;;3.53;53.36;94951.59;4963232;28;19958;-76
2023/10/18 05:37:50;;;;;;;;;;;;;;;3.23;56.64;94955.38;4964829;28;19997;-74
2023/10/18 05:43:00;;;;;;;;;;;;;;;3.28;55.97;94950.47;4959987;28;19956;-75
2023/10/18 05:45:31;;;;;;;;;;;;;;;3.47;55.84;94943.47;4972224;28;19943;-77
2023/10/18 05:47:56;;;;;;;;;;;;;;;3.64;54.43;94945.25;4969804;28;19953;-75
2023/10/18 05:50:24;;;;;;;;;;;;;;;3.26;53.30;94944.53;4976783;28;19984;-76
2023/10/18 05:52:49;;;;;;;;;;;;;;;3.48;54.81;94942.47;4979668;28;20429;-75
2023/10/18 05:55:14;;;;;;;;;;;;;;;3.76;53.69;94939.75;4964348;28;19961;-75
2023/10/18 05:57:40;;;;;;;;;;;;;;;3.47;56.53;94939.00;4967806;28;19936;-77
2023/10/18 06:00:24;;;;;;;;;;;;;;;3.74;53.97;94936.47;4948379;28;19958;-75
2023/10/18 06:02:52;;;;;;;;;;;;;;;3.60;51.10;94940.47;4968576;28;19929;-76
2023/10/18 06:05:17;;;;;;;;;;;;;;;3.73;53.86;94943.53;4971727;28;19944;-77
2023/10/18 06:07:43;;;;;;;;;;;;;;;3.53;52.11;94940.22;4971069;28;19955;-76
2023/10/18 06:10:17;;;;;;;;;;;;;;;3.75;53.75;94946.00;4975911;28;19939;-77
2023/10/18 06:12:48;;;;;;;;;;;;;;;3.48;56.08;94939.84;4982321;28;19967;-75
2023/10/18 06:15:16;;;;;;;;;;;;;;;3.41;54.54;94939.59;4966064;28;19964;-74
2023/10/18 06:17:52;;;;;;;;;;;;;;;3.59;55.81;94933.53;4976277;28;19929;-76
2023/10/18 06:20:27;;;;;;;;;;;;;;;3.84;53.44;94915.31;4973423;28;20061;-74
2023/10/18 06:23:07;;;;;;;;;;;;;;;3.83;53.79;94925.00;4970785;28;20576;-75
2023/10/18 06:25:36;;;;;;;;;;;;;;;3.93;54.88;94923.13;4960470;28;19956;-76
2023/10/18 06:28:07;;;;;;;;;;;;;;;3.93;52.44;94920.50;4971387;28;19958;-76
2023/10/18 06:30:35;;;;;;;;;;;;;;;3.87;55.21;94928.16;4961450;28;19949;-77
2023/10/18 06:33:05;;;;;;;;;;;;;;;3.92;53.07;94926.72;4973962;28;19936;-77
2023/10/18 06:35:31;;;;;;;;;;;;;;;3.70;53.78;94924.59;4991726;28;19964;-77
2023/10/18 06:37:57;;;;;;;;;;;;;;;3.74;54.88;94912.78;4980387;28;20082;-76
2023/10/18 06:40:43;;;;;;;;;;;;;;;3.83;52.14;94925.00;4982681;28;20025;-77
2023/10/18 06:43:08;;;;;;;;;;;;;;;3.67;53.24;94930.97;4977560;28;19951;-78
2023/10/18 06:45:37;;;;;;;;;;;;;;;4.18;51.09;94939.09;4943246;28;19949;-67
2023/10/18 06:48:03;;;;;;;;;;;;;;;4.19;51.69;94935.47;4951763;28;20471;-68
2023/10/18 06:50:29;;;;;;;;;;;;;;;4.35;50.91;94923.38;4956792;28;19968;-67
2023/10/18 06:52:54;;;;;;;;;;;;;;;4.24;52.37;94937.66;4957123;28;20631;-67
2023/10/18 06:55:21;;;;;;;;;;;;;;;4.50;51.03;94931.56;4959423;28;19943;-68
2023/10/18 06:57:49;;;;;;;;;;;;;;;4.34;51.88;94929.63;4960839;28;19958;-67
2023/10/18 07:00:15;;;;;;;;;;;;;;;4.34;52.91;94927.00;4952538;28;19949;-68
2023/10/18 07:02:40;;;;;;;;;;;;;;;4.38;54.56;94932.78;4952797;28;19953;-67
2023/10/18 07:05:08;;;;;;;;;;;;;;;4.23;51.20;94924.63;4950281;28;20056;-66
2023/10/18 07:07:33;;;;;;;;;;;;;;;4.36;51.55;94925.06;4951813;28;19939;-68
2023/10/18 07:09:59;;;;;;;;;;;;;;;4.19;54.67;94929.38;4951980;28;19953;-67
2023/10/18 07:12:27;;;;;;;;;;;;;;;4.29;53.18;94914.28;4949931;28;19995;-68
2023/10/18 07:14:55;;;;;;;;;;;;;;;4.62;50.87;94913.63;4951326;28;19934;-66
2023/10/18 07:17:24;;;;;;;;;;;;;;;4.73;51.19;94909.88;4950575;28;19955;-66
2023/10/18 07:19:49;;;;;;;;;;;;;;;4.82;50.45;94903.66;4952882;28;19948;-68
2023/10/18 07:22:19;;;;;;;;;;;;;;;4.66;49.43;94904.41;4951717;28;20301;-68
2023/10/18 07:24:47;;;;;;;;;;;;;;;5.00;50.54;94896.63;4949115;28;20529;-68
2023/10/18 07:27:15;;;;;;;;;;;;;;;5.08;51.79;94902.81;4951558;28;20522;-67
2023/10/18 07:29:46;;;;;;;;;;;;;;;5.25;49.25;94902.00;4951320;28;19956;-69
2023/10/18 07:32:14;;;;;;;;;;;;;;;5.26;49.28;94888.63;4960154;28;19959;-68
2023/10/18 07:34:40;;;;;;;;;;;;;;;5.33;50.64;94886.16;4955745;28;20683;-68
2023/10/18 07:37:18;;;;;;;;;;;;;;;5.44;48.86;94885.03;4962677;28;19962;-68
2023/10/18 07:40:08;;;;;;;;;;;;;;;5.32;49.66;94888.00;4968530;28;19937;-68
2023/10/18 07:42:51;;;;;;;;;;;;;;;5.49;47.44;94882.72;4962378;28;20310;-68
2023/10/18 07:45:15;;;;;;;;;;;;;;;5.55;49.63;94875.97;4962340;28;20503;-68
2023/10/18 07:47:40;;;;;;;;;;;;;;;5.77;47.55;94876.28;4960896;28;19933;-68
2023/10/18 07:52:54;;;;;;;;;;;;;;;5.82;45.94;94877.44;4958484;28;19975;-70
2023/10/18 07:55:21;;;;;;;;;;;;;;;5.99;47.40;94880.09;4959629;28;20011;-70
2023/10/18 07:57:46;;;;;;;;;;;;;;;6.03;50.13;94872.63;4964668;28;19954;-70
2023/10/18 08:00:21;;;;;;;;;;;;;;;5.82;48.95;94872.16;4969259;28;20003;-71
2023/10/18 08:02:46;;;;;;;;;;;;;;;6.07;45.61;94873.94;4960313;28;20316;-70
2023/10/18 08:05:12;;;;;;;;;;;;;;;6.13;48.00;94863.53;4967383;28;19953;-70
2023/10/18 08:07:37;;;;;;;;;;;;;;;6.10;49.06;94860.41;4964981;28;20002;-70
2023/10/18 08:10:08;;;;;;;;;;;;;;;6.28;46.68;94854.91;4945592;28;19948;-69
2023/10/18 08:12:33;;;;;;;;;;;;;;;6.27;46.58;94852.41;4961521;28;20598;-70
2023/10/18 08:14:58;;;;;;;;;;;;;;;6.33;49.28;94849.13;4960955;28;19936;-70
2023/10/18 08:18:00;;;;;;;;;;;;;;;6.52;45.20;94847.09;4961173;28;19993;-70
2023/10/18 08:22:53;;;;;;;;;;;;;;;6.65;45.49;94852.66;4964928;28;19968;-70
2023/10/18 08:25:24;;;;;;;;;;;;;;;6.76;44.43;94854.91;4960688;28;19953;-71
2023/10/18 08:27:50;;;;;;;;;;;;;;;6.96;47.15;94845.72;4972292;28;20045;-70
2023/10/18 08:30:24;;;;;;;;;;;;;;;7.09;44.00;94848.63;4970562;28;20035;-70
2023/10/18 08:32:51;;;;;;;;;;;;;;;7.35;44.87;94844.00;4970205;28;20432;-71
2023/10/18 08:35:19;;;;;;;;;;;;;;;7.50;40.95;94842.22;4964697;28;20093;-70
2023/10/18 08:37:45;;;;;;;;;;;;;;;7.68;41.15;94837.63;4964627;28;19975;-70
2023/10/18 08:40:37;;;;;;;;;;;;;;;7.75;40.60;94839.38;4961895;28;20505;-70
2023/10/18 08:43:05;;;;;;;;;;;;;;;7.53;40.75;94836.59;4961226;28;20435;-70
2023/10/18 08:45:36;;;;;;;;;;;;;;;7.54;41.17;94840.88;4944600;28;19926;-69
2023/10/18 08:48:09;;;;;;;;;;;;;;;7.64;40.78;94819.44;4951339;28;19989;-69
2023/10/18 08:50:34;;;;;;;;;;;;;;;7.73;40.91;94828.13;4948834;28;20498;-70
2023/10/18 08:53:00;;;;;;;;;;;;;;;7.33;44.63;94830.09;4969317;28;19945;-70
2023/10/18 08:58:09;;;;;;;;;;;;;;;7.70;43.33;94833.78;4969546;28;19957;-70
2023/10/18 09:02:59;;;;;;;;;;;;;;;8.10;41.75;94809.75;4965539;28;20621;-68
2023/10/18 09:05:25;;;;;;;;;;;;;;;8.39;40.09;94807.25;4965150;28;19968;-68
2023/10/18 09:07:53;;;;;;;;;;;;;;;8.82;37.50;94806.56;4961146;28;19953;-67
2023/10/18 09:15:55;;;;;;;;;;;;;;;8.91;36.47;94794.00;4963769;28;19921;-68
2023/10/18 09:18:21;;;;;;;;;;;;;;;9.12;38.15;94784.44;4947872;28;19955;-68
2023/10/18 09:20:46;;;;;;;;;;;;;;;8.93;37.26;94791.97;4964522;28;20365;-68
2023/10/18 09:23:21;;;;;;;;;;;;;;;9.01;36.21;94804.34;4966338;28;20504;-66
2023/10/18 09:25:49;;;;;;;;;;;;;;;8.93;39.86;94792.81;4954643;28;19918;-67
2023/10/18 09:28:25;;;;;;;;;;;;;;;9.50;35.80;94802.78;4960004;28;20435;-67
2023/10/18 09:30:54;;;;;;;;;;;;;;;9.70;35.88;94799.47;4975864;28;20391;-67
2023/10/18 09:33:19;;;;;;;;;;;;;;;9.68;35.81;94789.03;4959333;28;20009;-67
2023/10/18 09:35:47;;;;;;;;;;;;;;;9.49;37.19;94798.50;4962410;28;20073;-67
2023/10/18 09:38:12;;;;;;;;;;;;;;;9.56;36.40;94786.06;4965082;28;20359;-66
2023/10/18 09:40:40;;;;;;;;;;;;;;;9.95;36.85;94789.22;4961289;28;19926;-67
2023/10/18 09:43:06;;;;;;;;;;;;;;;9.69;38.52;94782.69;4960806;28;19925;-66
2023/10/18 09:45:32;;;;;;;;;;;;;;;9.85;37.63;94768.28;4969028;28;19917;-67
2023/10/18 09:47:58;;;;;;;;;;;;;;;9.90;34.85;94754.44;4963444;28;19961;-68
2023/10/18 09:50:28;;;;;;;;;;;;;;;9.99;34.24;94763.03;4963511;28;20016;-68
2023/10/18 09:52:56;;;;;;;;;;;;;;;10.36;34.38;94769.03;4944683;28;19966;-67
2023/10/18 09:55:22;;;;;;;;;;;;;;;9.93;34.84;94751.34;4946127;28;19929;-68
2023/10/18 09:57:59;;;;;;;;;;;;;;;10.10;33.81;94759.88;4959499;28;20402;-67
2023/10/18 10:00:26;;;;;;;;;;;;;;;9.95;36.94;94759.97;4959616;28;20375;-68
2023/10/18 10:02:52;;;;;;;;;;;;;;;10.20;37.66;94754.19;4969086;28;19917;-67
2023/10/18 10:05:25;;;;;;;;;;;;;;;10.54;34.40;94754.34;4972002;28;19926;-66
2023/10/18 10:08:06;;;;;;;;;;;;;;;10.58;34.69;94754.78;4965156;28;19914;-67
2023/10/18 10:10:44;;;;;;;;;;;;;;;10.46;35.25;94754.50;4968496;28;20299;-69
2023/10/18 10:13:11;;;;;;;;;;;;;;;10.93;34.53;94751.19;4966214;28;20327;-68
2023/10/18 10:15:37;;;;;;;;;;;;;;;10.79;36.20;94745.00;4967621;28;20009;-78
2023/10/18 10:18:07;;;;;;;;;;;;;;;10.45;36.95;94742.25;4985930;28;19914;-77
2023/10/18 10:20:33;;;;;;;;;;;;;;;10.21;34.79;94742.53;4990864;28;19910;-77
2023/10/18 10:23:02;;;;;;;;;;;;;;;10.15;40.40;94739.84;4976621;28;19916;-78
2023/10/18 10:30:38;;;;;;;;;;;;;;;11.25;33.12;94719.50;5663821;23;19913;-77
2023/10/18 10:33:05;;;;;;;;;;;;;;;11.39;33.46;94722.97;4981096;28;19917;-76
2023/10/18 10:35:32;;;;;;;;;;;;;;;11.34;33.39;94714.78;5001258;28;20074;-78
2023/10/18 10:38:01;;;;;;;;;;;;;;;11.20;34.92;94713.97;4985789;28;19910;-76
2023/10/18 10:43:12;;;;;;;;;;;;;;;11.58;32.99;94694.69;4989355;28;19906;-76
2023/10/18 10:45:38;;;;;;;;;;;;;;;11.54;34.41;94687.31;4985537;28;20052;-75
2023/10/18 10:51:12;;;;;;;;;;;;;;;11.35;34.63;94693.28;5000050;28;19905;-76
2023/10/18 10:53:44;;;;;;;;;;;;;;;11.39;35.17;94685.66;4980128;28;20311;-76
2023/10/18 10:56:18;;;;;;;;;;;;;;;11.15;36.36;94668.47;4983637;28;19914;-76
2023/10/18 10:58:55;;;;;;;;;;;;;;;11.19;34.09;94685.69;4999456;28;19902;-76
2023/10/18 11:01:39;;;;;;;;;;;;;;;11.12;38.12;94681.16;4990366;28;19910;-75
2023/10/18 11:04:24;;;;;;;;;;;;;;;11.71;33.20;94669.84;4998411;28;19936;-77
2023/10/18 11:06:51;;;;;;;;;;;;;;;11.85;35.37;94664.47;4998152;28;19922;-76
2023/10/18 11:09:16;;;;;;;;;;;;;;;12.39;35.45;94651.81;4991631;28;19992;-77
2023/10/18 11:11:43;;;;;;;;;;;;;;;12.38;32.60;94646.66;4981211;28;19926;-75
2023/10/18 11:14:08;;;;;;;;;;;;;;;12.82;31.73;94629.97;4993497;28;19969;-77
2023/10/18 11:16:34;;;;;;;;;;;;;;;12.78;31.41;94634.91;4994568;28;20015;-76
2023/10/18 11:19:00;;;;;;;;;;;;;;;13.21;30.79;94635.25;4961806;28;20012;-70
2023/10/18 11:21:28;;;;;;;;;;;;;;;13.78;30.95;94621.75;4974481;28;20114;-70
2023/10/18 11:24:01;;;;;;;;;;;;;;;13.82;30.64;94616.75;4977742;28;19914;-70
2023/10/18 11:26:27;;;;;;;;;;;;;;;14.11;32.27;94606.34;4974465;28;20004;-70
2023/10/18 11:28:57;;;;;;;;;;;;;;;14.33;29.44;94608.56;4977177;28;20012;-70
2023/10/18 11:31:26;;;;;;;;;;;;;;;14.67;28.17;94595.50;4922025;28;1109434;-70
2023/10/18 11:33:55;;;;;;;;;;;;;;;14.91;28.26;94581.34;4961582;28;19926;-71
2023/10/18 11:36:20;;;;;;;;;;;;;;;14.79;30.46;94586.72;4950279;28;20299;-71
2023/10/18 11:41:34;;;;;;;;;;;;;;;15.32;27.14;94579.66;4953542;28;20028;-70
2023/10/18 11:44:00;;;;;;;;;;;;;;;15.39;28.19;94576.84;4956110;28;19924;-71
2023/10/18 11:46:25;;;;;;;;;;;;;;;15.05;26.96;94582.78;4954701;28;19921;-70
2023/10/18 11:48:51;;;;;;;;;;;;;;;15.20;28.69;94579.63;4960987;28;19918;-71
2023/10/18 11:51:16;;;;;;;;;;;;;;;15.92;25.06;94574.22;4942504;28;19921;-71
2023/10/18 11:53:41;;;;;;;;;;;;;;;15.88;25.98;94579.25;4957535;28;19951;-70
2023/10/18 11:56:08;;;;;;;;;;;;;;;16.28;27.81;94578.66;4954001;28;19922;-70
2023/10/18 11:58:34;;;;;;;;;;;;;;;16.56;25.67;94569.81;4964600;28;20576;-70
2023/10/18 12:01:00;;;;;;;;;;;;;;;16.61;25.09;94551.06;4961859;28;19925;-71
2023/10/18 12:03:27;;;;;;;;;;;;;;;16.94;24.73;94542.44;4952758;28;19926;-71
2023/10/18 12:06:00;;;;;;;;;;;;;;;17.29;26.44;94538.69;4955101;28;19918;-70
2023/10/18 12:08:30;;;;;;;;;;;;;;;17.08;26.38;94538.38;4956825;28;20391;-71
2023/10/18 12:10:56;;;;;;;;;;;;;;;16.96;28.38;94548.41;4956930;28;19929;-71
2023/10/18 12:13:21;;;;;;;;;;;;;;;17.21;25.80;94542.63;4956928;28;20344;-71
2023/10/18 12:15:47;;;;;;;;;;;;;;;17.64;25.67;94544.81;4963738;28;19961;-70
2023/10/18 12:18:14;;;;;;;;;;;;;;;17.59;25.64;94550.13;4964146;28;19949;-71
2023/10/18 12:20:45;;;;;;;;;;;;;;;17.45;26.63;94555.88;4962252;28;19949;-71
2023/10/18 12:23:12;;;;;;;;;;;;;;;17.37;26.65;94540.16;4941542;28;19968;-71
2023/10/18 12:25:38;;;;;;;;;;;;;;;17.04;27.96;94548.00;4956665;28;19922;-71
2023/10/18 12:28:04;;;;;;;;;;;;;;;16.88;28.64;94538.88;4962618;28;20459;-70
2023/10/18 12:30:39;;;;;;;;;;;;;;;16.50;28.83;94539.34;4945743;28;19932;-66
2023/10/18 12:33:06;;;;;;;;;;;;;;;15.92;28.04;94530.47;4981238;28;19922;-66
2023/10/18 12:35:31;;;;;;;;;;;;;;;16.25;28.28;94512.84;4979081;28;20142;-65
2023/10/18 12:37:56;;;;;;;;;;;;;;;15.80;27.81;94509.03;4982352;28;19917;-65
2023/10/18 12:40:32;;;;;;;;;;;;;;;15.42;29.97;94506.66;4980512;28;19917;-65
2023/10/18 12:42:58;;;;;;;;;;;;;;;15.68;30.44;94503.72;4983260;28;19917;-65
2023/10/18 12:45:23;;;;;;;;;;;;;;;15.85;30.18;94504.56;4981315;28;19933;-65
2023/10/18 12:47:51;;;;;;;;;;;;;;;16.58;27.39;94484.38;4983009;28;19909;-65
2023/10/18 12:50:18;;;;;;;;;;;;;;;16.84;27.45;94498.25;4982724;28;19914;-65
2023/10/18 12:52:44;;;;;;;;;;;;;;;17.06;26.04;94477.84;4981760;28;20449;-66
2023/10/18 12:57:54;;;;;;;;;;;;;;;17.86;25.31;94474.84;4972151;28;20019;-66
2023/10/18 13:00:23;;;;;;;;;;;;;;;18.31;24.89;94463.97;4970824;28;20016;-66
2023/10/18 13:03:15;;;;;;;;;;;;;;;19.29;24.71;94455.00;4969756;28;19949;-68
2023/10/18 13:05:46;;;;;;;;;;;;;;;19.67;24.00;94452.16;4958056;28;20555;-68
2023/10/18 13:08:22;;;;;;;;;;;;;;;19.89;24.21;94440.38;4971525;28;19922;-68
2023/10/18 13:10:56;;;;;;;;;;;;;;;20.02;22.69;94439.88;4970825;28;19918;-68
2023/10/18 13:13:23;;;;;;;;;;;;;;;20.21;22.70;94426.69;4971056;28;19933;-68
2023/10/18 13:15:48;;;;;;;;;;;;;;;21.02;20.81;94432.59;4974781;28;19922;-69
2023/10/18 13:18:14;;;;;;;;;;;;;;;20.36;21.65;94427.75;4968667;28;19917;-68
2023/10/18 13:20:43;;;;;;;;;;;;;;;20.30;22.58;94418.84;4970004;28;20407;-67
2023/10/18 13:23:09;;;;;;;;;;;;;;;20.74;23.05;94411.28;4972610;28;21951;-68
2023/10/18 13:25:37;;;;;;;;;;;;;;;21.10;21.97;94391.44;4972774;28;19949;-68
2023/10/18 13:28:05;;;;;;;;;;;;;;;21.80;21.45;94384.38;4972107;28;20290;-68
2023/10/18 13:30:43;;;;;;;;;;;;;;;22.73;20.89;94385.59;4970158;28;20699;-68
2023/10/18 13:33:11;;;;;;;;;;;;;;;24.09;19.13;94368.47;4972169;28;20001;-68
2023/10/18 13:35:39;;;;;;;;;;;;;;;24.86;17.87;94371.03;4972179;28;19932;-68
2023/10/18 13:38:04;;;;;;;;;;;;;;;23.30;19.92;94365.19;4970413;28;20342;-68
2023/10/18 13:40:29;;;;;;;;;;;;;;;21.78;20.86;94373.00;4971486;28;19932;-70
2023/10/18 13:42:55;;;;;;;;;;;;;;;20.51;22.49;94370.19;4970443;28;20407;-69
2023/10/18 13:45:20;;;;;;;;;;;;;;;19.82;21.91;94365.81;4970877;28;19925;-69
2023/10/18 13:47:45;;;;;;;;;;;;;;;19.08;22.97;94358.56;4972447;28;19949;-69
2023/10/18 13:50:11;;;;;;;;;;;;;;;17.71;25.82;94356.25;4971635;28;19980;-69
2023/10/18 13:52:36;;;;;;;;;;;;;;;17.10;25.90;94350.72;4972083;28;20551;-69